createdAt,value
2022-08-04T00:00:26.061Z,10.50
2022-08-04T00:05:41.376Z,12.40
2022-08-04T00:10:49.552Z,12.60
2022-08-04T00:15:54.464Z,12.00
2022-08-04T00:21:05.518Z,11.20
2022-08-04T00:26:09.497Z,13.80
2022-08-04T00:31:13.137Z,12.60
2022-08-04T00:36:21.334Z,10.40
2022-08-04T00:41:31.725Z,10.40
2022-08-04T00:47:01.087Z,11.40
2022-08-04T00:52:32.750Z,10.40
2022-08-04T00:57:52.515Z,7.80
2022-08-04T01:03:10.908Z,10.60
2022-08-04T01:08:35.569Z,8.40
2022-08-04T01:13:55.710Z,12.00
2022-08-04T01:19:02.669Z,10.80
2022-08-04T01:24:20.611Z,10.40
2022-08-04T01:29:30.498Z,9.80
2022-08-04T01:34:52.401Z,11.00
2022-08-04T01:40:04.034Z,11.60
2022-08-04T01:45:11.351Z,9.00
2022-08-04T01:50:15.400Z,9.20
2022-08-04T01:55:18.430Z,10.00
2022-08-04T02:00:27.010Z,9.25
2022-08-04T02:06:04.023Z,10.80
2022-08-04T02:11:04.856Z,10.80
2022-08-04T02:16:17.518Z,11.20
2022-08-04T02:21:21.651Z,11.60
2022-08-04T02:26:29.295Z,12.20
2022-08-04T02:31:39.751Z,11.00
2022-08-04T02:36:44.063Z,14.20
2022-08-04T02:41:48.332Z,12.00
2022-08-04T02:46:54.334Z,10.40
2022-08-04T02:51:58.742Z,11.25
2022-08-04T02:57:02.375Z,10.50
2022-08-04T03:02:12.087Z,11.40
2022-08-04T03:07:59.353Z,12.20
2022-08-04T03:13:28.915Z,10.40
2022-08-04T03:19:17.829Z,10.00
2022-08-04T03:25:00.001Z,10.80
2022-08-04T03:30:08.917Z,14.20
2022-08-04T03:35:36.589Z,14.20
2022-08-04T03:41:04.802Z,12.40
2022-08-04T03:46:42.681Z,11.80
2022-08-04T03:52:16.023Z,11.20
2022-08-04T03:57:36.554Z,15.00
2022-08-04T04:03:28.570Z,11.60
2022-08-04T04:09:08.090Z,13.60
2022-08-04T04:14:41.914Z,12.40
2022-08-04T04:20:11.741Z,14.60
2022-08-04T04:25:26.827Z,15.60
2022-08-04T04:30:40.284Z,13.60
2022-08-04T04:35:58.895Z,14.00
2022-08-04T04:41:17.767Z,13.20
2022-08-04T04:46:33.216Z,16.40
2022-08-04T04:51:44.705Z,16.20
2022-08-04T04:56:51.857Z,13.40
2022-08-04T05:02:32.059Z,14.80
2022-08-04T05:07:58.568Z,17.20
2022-08-04T05:14:37.200Z,13.40
2022-08-04T05:18:47.845Z,14.40
2022-08-04T05:23:57.816Z,12.40
2022-08-04T05:29:05.824Z,13.80
2022-08-04T05:34:13.882Z,14.00
2022-08-04T05:39:20.580Z,13.60
2022-08-04T05:44:24.732Z,12.40
2022-08-04T05:49:30.308Z,14.00
2022-08-04T05:54:35.180Z,16.80
2022-08-04T05:59:42.318Z,12.80
2022-08-04T06:04:50.052Z,10.00
2022-08-04T06:09:52.980Z,10.80
2022-08-04T06:14:59.785Z,14.80
2022-08-04T06:20:19.281Z,13.20
2022-08-04T06:25:30.530Z,14.00
2022-08-04T06:30:34.376Z,11.60
2022-08-04T06:35:38.838Z,16.00
2022-08-04T06:40:42.498Z,13.00
2022-08-04T06:45:45.723Z,13.00
2022-08-04T06:51:24.725Z,12.60
2022-08-04T06:56:15.822Z,13.00
2022-08-04T07:01:21.704Z,11.00
2022-08-04T07:06:26.020Z,11.80
2022-08-04T07:11:29.552Z,11.00
2022-08-04T07:16:43.397Z,9.20
2022-08-04T07:22:18.853Z,9.00
2022-08-04T07:27:10.800Z,11.80
2022-08-04T07:32:14.701Z,11.80
2022-08-04T07:37:19.938Z,10.25
2022-08-04T07:42:23.379Z,10.00
2022-08-04T07:47:27.461Z,13.40
2022-08-04T07:52:32.459Z,12.40
2022-08-04T07:57:41.530Z,14.00
2022-08-04T08:02:49.333Z,11.40
2022-08-04T08:07:55.041Z,8.80
2022-08-04T08:12:58.533Z,8.80
2022-08-04T08:18:01.363Z,9.40
2022-08-04T08:23:06.071Z,9.60
2022-08-04T08:28:08.883Z,10.80
2022-08-04T08:33:16.165Z,11.20
2022-08-04T08:38:28.616Z,11.75
2022-08-04T08:44:00.192Z,9.00
2022-08-04T08:50:01.049Z,9.25
2022-08-04T08:55:20.025Z,9.00
2022-08-04T09:00:31.899Z,10.60
2022-08-04T09:05:58.665Z,7.50
2022-08-04T09:11:09.815Z,8.80
2022-08-04T09:16:19.001Z,9.80
2022-08-04T09:21:31.711Z,7.20
2022-08-04T09:26:46.568Z,8.20
2022-08-04T09:32:07.123Z,8.60
2022-08-04T09:37:18.276Z,8.00
2022-08-04T09:42:35.918Z,9.20
2022-08-04T09:47:47.688Z,7.50
2022-08-04T09:52:59.327Z,8.00
2022-08-04T09:58:10.018Z,8.00
2022-08-04T10:03:19.622Z,11.20
2022-08-04T10:08:38.015Z,6.50
2022-08-04T10:13:53.150Z,7.00
2022-08-04T10:19:07.964Z,9.75
2022-08-04T10:24:32.136Z,6.50
2022-08-04T10:29:43.911Z,5.75
2022-08-04T10:35:00.845Z,6.75
2022-08-04T10:40:25.689Z,5.00
2022-08-04T10:45:37.728Z,7.50
2022-08-04T10:50:53.098Z,6.25
2022-08-04T10:56:06.553Z,6.75
2022-08-04T11:02:01.282Z,7.00
2022-08-04T11:06:46.868Z,6.25
2022-08-04T11:12:00.737Z,7.75
2022-08-04T11:17:09.235Z,7.50
2022-08-04T11:22:16.537Z,7.75
2022-08-04T11:27:29.164Z,7.20
2022-08-04T11:32:42.239Z,6.00
2022-08-04T11:37:51.040Z,7.00
2022-08-04T11:42:59.160Z,8.00
2022-08-04T11:48:11.052Z,7.00
2022-08-04T11:53:19.344Z,7.25
2022-08-04T11:58:23.135Z,7.00
2022-08-04T12:03:37.646Z,6.75
2022-08-04T12:08:59.401Z,5.75
2022-08-04T12:14:11.152Z,6.00
2022-08-04T12:19:22.462Z,7.00
2022-08-04T12:24:32.512Z,6.75
2022-08-04T12:29:37.669Z,5.50
2022-08-04T12:34:45.835Z,5.50
2022-08-04T12:40:28.956Z,7.00
2022-08-04T12:45:15.647Z,6.00
2022-08-04T12:50:21.735Z,4.50
2022-08-04T12:55:29.720Z,5.75
2022-08-04T13:00:43.765Z,5.75
2022-08-04T13:05:53.989Z,7.75
2022-08-04T13:10:59.867Z,7.25
2022-08-04T13:16:08.479Z,6.75
2022-08-04T13:21:22.779Z,6.00
2022-08-04T13:26:42.821Z,7.00
2022-08-04T13:31:53.945Z,5.50
2022-08-04T13:36:59.436Z,5.00
2022-08-04T13:42:08.944Z,5.00
2022-08-04T13:47:16.488Z,6.75
2022-08-04T13:52:27.232Z,6.25
2022-08-04T13:57:32.465Z,4.50
2022-08-04T14:02:40.611Z,4.25
2022-08-04T14:07:48.264Z,5.00
2022-08-04T14:12:53.131Z,5.25
2022-08-04T14:17:56.103Z,5.00
2022-08-04T14:23:02.339Z,3.50
2022-08-04T14:28:06.036Z,4.00
2022-08-04T14:34:02.712Z,6.50
2022-08-04T14:38:47.411Z,4.50
2022-08-04T14:43:52.732Z,7.75
2022-08-04T14:49:04.245Z,4.00
2022-08-04T14:54:18.799Z,5.50
2022-08-04T14:59:23.489Z,6.50
2022-08-04T15:04:27.749Z,5.75
2022-08-04T15:09:32.828Z,5.25
2022-08-04T15:14:38.195Z,3.75
2022-08-04T15:19:41.721Z,4.75
2022-08-04T15:25:00.568Z,6.00
2022-08-04T15:30:06.393Z,4.00
2022-08-04T15:35:12.766Z,6.75
2022-08-04T15:40:26.921Z,5.00
2022-08-04T15:46:35.010Z,4.50
2022-08-04T15:51:14.203Z,7.50
2022-08-04T15:56:48.285Z,4.00
2022-08-04T16:02:45.890Z,5.00
2022-08-04T16:07:56.689Z,8.75
2022-08-04T16:13:08.570Z,4.00
2022-08-04T16:18:26.356Z,4.00
2022-08-04T16:24:07.553Z,4.50
2022-08-04T16:29:30.462Z,4.50
2022-08-04T16:34:48.155Z,3.25
2022-08-04T16:40:35.205Z,5.50
2022-08-04T16:45:52.538Z,4.25
2022-08-04T16:50:58.183Z,3.00
2022-08-04T16:56:10.771Z,4.00
2022-08-04T17:01:32.135Z,3.50
2022-08-04T17:06:38.711Z,3.00
2022-08-04T17:11:43.021Z,6.00
2022-08-04T17:16:47.132Z,3.50
2022-08-04T17:21:50.092Z,3.00
2022-08-04T17:26:54.473Z,2.50
2022-08-04T17:31:59.165Z,3.00
2022-08-04T17:42:30.274Z,3.00
2022-08-04T17:47:38.282Z,2.75
2022-08-04T17:52:45.439Z,3.75
2022-08-04T17:57:52.222Z,2.00
2022-08-04T18:02:57.055Z,2.25
2022-08-04T18:08:39.535Z,2.25
2022-08-04T18:13:42.313Z,2.50
2022-08-04T18:19:10.493Z,2.00
2022-08-04T18:24:14.018Z,4.00
2022-08-04T18:29:31.303Z,3.75
2022-08-04T18:34:40.747Z,2.50
2022-08-04T18:40:25.148Z,4.25
2022-08-04T18:45:20.350Z,4.00
2022-08-04T18:51:00.805Z,5.00
2022-08-04T18:55:56.536Z,5.50
2022-08-04T19:01:01.196Z,7.75
2022-08-04T19:06:07.510Z,4.75
2022-08-04T19:11:38.193Z,4.00
2022-08-04T19:16:34.944Z,4.00
2022-08-04T19:21:59.299Z,4.25
2022-08-04T19:27:07.050Z,5.00
2022-08-04T19:32:14.023Z,4.25
2022-08-04T19:37:57.491Z,15.80
2022-08-04T19:42:43.313Z,34.00
2022-08-04T19:48:12.101Z,26.20
2022-08-04T19:53:18.902Z,17.40
2022-08-04T19:58:26.317Z,19.20
2022-08-04T20:04:08.838Z,20.60
2022-08-04T20:08:53.708Z,17.00
2022-08-04T20:13:58.236Z,21.20
2022-08-04T20:19:04.196Z,18.40
2022-08-04T20:24:41.515Z,16.80
2022-08-04T20:29:40.300Z,18.60
2022-08-04T20:34:43.794Z,13.80
2022-08-04T20:39:54.894Z,13.00
2022-08-04T20:44:58.052Z,16.60
2022-08-04T20:50:01.682Z,13.80
2022-08-04T20:55:07.095Z,14.60
2022-08-04T21:00:13.127Z,14.60
2022-08-04T21:05:16.484Z,14.00
2022-08-04T21:10:21.987Z,15.20
2022-08-04T21:15:50.748Z,15.00
2022-08-04T21:20:48.715Z,12.00
2022-08-04T21:25:58.130Z,14.20
2022-08-04T21:31:02.519Z,15.80
2022-08-04T21:36:14.955Z,12.80
2022-08-04T21:41:24.923Z,13.60
2022-08-04T21:46:31.256Z,15.40
2022-08-04T21:51:57.909Z,14.00
2022-08-04T21:56:59.633Z,16.60
2022-08-04T22:02:06.492Z,13.40
2022-08-04T22:07:10.606Z,14.20
2022-08-04T22:12:14.890Z,13.40
2022-08-04T22:17:25.496Z,15.00
2022-08-04T22:22:29.431Z,12.20
2022-08-04T22:27:55.046Z,14.00
2022-08-04T22:32:58.279Z,14.00
2022-08-04T22:38:07.787Z,11.40
2022-08-04T22:43:31.678Z,13.40
2022-08-04T22:48:38.327Z,12.40
2022-08-04T22:53:41.771Z,14.80
2022-08-04T22:58:53.129Z,14.40
2022-08-04T23:03:57.432Z,12.60
2022-08-04T23:09:00.112Z,14.60
2022-08-04T23:14:06.186Z,13.20
2022-08-04T23:19:09.503Z,12.80
2022-08-04T23:24:12.984Z,12.60
2022-08-04T23:29:17.570Z,12.60
2022-08-04T23:34:20.274Z,14.40
2022-08-04T23:39:23.071Z,15.20
2022-08-04T23:44:28.825Z,14.80
2022-08-04T23:49:43.348Z,12.80
2022-08-04T23:54:47.360Z,16.40
2022-08-04T23:59:55.021Z,16.40
